Time;durP1;ratioP1;P1;durP2;ratioP2;P2;SDS_P1;SDS_P2;PMS_P1;PMS_P2;Temp;Humidity;BMP_temperature;BMP_pressure;BME280_temperature;BME280_humidity;BME280_pressure;Samples;Min_cycle;Max_cycle;Signal;HPM_P1;HPM_P2
2021/01/21 00:01:22;;;;;;;4.75;1.20;;;10.90;99.90;;;11.65;61.38;98281.81;5059959;28;20468;-84
2021/01/21 00:03:48;;;;;;;4.40;1.08;;;11.00;99.90;;;11.57;61.59;98280.31;5059411;28;20139;-81
2021/01/21 00:06:14;;;;;;;7.85;1.30;;;11.00;99.90;;;11.70;60.71;98274.94;5041159;28;20037;-81
2021/01/21 00:08:41;;;;;;;2.97;1.17;;;11.10;99.90;;;11.71;60.93;98279.34;5041805;28;20539;-83
2021/01/21 00:11:07;;;;;;;3.80;1.15;;;11.10;99.90;;;11.72;60.77;98258.59;5041370;28;20292;-82
2021/01/21 00:13:33;;;;;;;4.25;1.10;;;11.20;99.90;;;11.81;60.15;98258.84;5047579;28;20365;-83
2021/01/21 00:16:00;;;;;;;4.82;1.70;;;11.30;99.90;;;11.80;60.44;98265.63;5058195;28;20112;-81
2021/01/21 00:18:26;;;;;;;3.90;1.45;;;11.30;99.90;;;11.86;59.95;98253.53;5054413;28;20342;-82
2021/01/21 00:20:52;;;;;;;3.25;1.27;;;11.30;99.90;;;11.89;60.01;98254.69;5025104;28;20053;-81
2021/01/21 00:23:18;;;;;;;3.35;1.23;;;11.40;99.90;;;12.01;59.72;98251.28;5022926;28;20088;-80
2021/01/21 00:25:44;;;;;;;4.20;1.30;;;11.40;99.90;;;11.98;59.82;98230.56;5023781;28;20025;-82
2021/01/21 00:28:10;;;;;;;3.75;1.33;;;11.40;99.90;;;11.98;59.25;98224.16;5043405;28;20017;-81
2021/01/21 00:30:36;;;;;;;6.85;1.17;;;11.30;99.90;;;11.95;59.85;98214.63;5035742;28;20036;-81
2021/01/21 00:33:02;;;;;;;3.17;1.20;;;11.40;99.90;;;11.79;60.27;98206.13;5035257;28;20061;-81
2021/01/21 00:35:28;;;;;;;4.50;1.13;;;11.30;99.90;;;11.85;60.50;98220.41;5043338;28;20500;-81
2021/01/21 00:37:54;;;;;;;6.18;1.67;;;11.30;99.90;;;11.87;59.94;98202.00;5060060;28;20029;-81
2021/01/21 00:40:20;;;;;;;3.58;1.00;;;11.30;99.90;;;11.87;59.82;98193.59;5063724;28;20043;-82
2021/01/21 00:42:46;;;;;;;6.95;1.17;;;11.30;99.90;;;11.89;59.71;98185.56;5061605;28;20388;-81
2021/01/21 00:45:12;;;;;;;3.75;1.10;;;11.40;99.90;;;11.98;59.22;98183.00;5030820;28;20129;-83
2021/01/21 00:47:38;;;;;;;2.30;0.85;;;11.40;99.90;;;11.95;59.23;98189.47;5056506;28;20040;-80
2021/01/21 00:50:05;;;;;;;5.57;1.30;;;11.50;99.90;;;11.92;59.38;98169.94;5054120;28;20037;-82
2021/01/21 00:52:31;;;;;;;3.25;1.33;;;11.50;99.90;;;11.87;59.43;98167.66;5061549;28;20037;-81
2021/01/21 00:54:57;;;;;;;4.28;1.08;;;11.40;99.90;;;11.81;59.48;98160.97;5035001;28;20102;-82
2021/01/21 00:57:23;;;;;;;5.20;1.00;;;11.40;99.90;;;11.83;59.53;98148.13;5053223;28;20040;-79
2021/01/21 00:59:49;;;;;;;3.17;1.02;;;11.30;99.90;;;11.65;59.47;98162.38;5023070;28;20551;-80
2021/01/21 01:02:14;;;;;;;2.17;0.80;;;11.30;99.90;;;11.70;59.64;98161.13;5058323;28;20033;-81
2021/01/21 01:04:40;;;;;;;6.07;1.30;;;11.30;99.90;;;11.79;59.18;98155.78;5057658;28;20173;-78
2021/01/21 01:07:06;;;;;;;2.53;1.20;;;11.30;99.90;;;11.74;58.90;98144.31;5039096;28;20040;-81
2021/01/21 01:09:32;;;;;;;3.78;1.33;;;11.20;99.90;;;11.64;59.53;98132.06;5040631;28;20086;-80
2021/01/21 01:11:58;;;;;;;3.85;1.00;;;11.20;99.90;;;11.61;59.75;98110.53;5043789;28;20040;-81
2021/01/21 01:14:24;;;;;;;2.63;1.00;;;11.20;99.90;;;11.67;58.41;98089.28;5061447;28;20085;-82
2021/01/21 01:16:50;;;;;;;4.70;0.93;;;11.20;99.90;;;11.62;59.12;98100.97;5059833;28;20388;-80
2021/01/21 01:19:18;;;;;;;3.33;1.05;;;11.10;99.90;;;11.51;59.86;98091.94;5022529;28;20037;-81
2021/01/21 01:21:44;;;;;;;2.63;1.10;;;11.10;99.90;;;11.51;59.61;98115.09;5041199;28;20060;-82
2021/01/21 01:24:10;;;;;;;5.32;1.42;;;11.00;99.90;;;11.58;58.95;98094.63;5038536;28;20083;-83
2021/01/21 01:26:36;;;;;;;5.22;1.60;;;11.10;99.90;;;11.61;59.29;98094.56;5020704;28;20029;-81
2021/01/21 01:29:02;;;;;;;6.05;1.13;;;11.10;99.90;;;11.46;59.53;98093.22;5038886;28;20060;-81
2021/01/21 01:31:28;;;;;;;3.28;1.15;;;11.00;99.90;;;11.36;59.76;98097.00;5020514;28;20045;-81
2021/01/21 01:33:54;;;;;;;2.33;1.17;;;10.90;99.90;;;11.35;60.30;98114.19;5021577;28;20025;-80
2021/01/21 01:36:20;;;;;;;5.00;0.95;;;10.90;99.90;;;11.47;59.44;98096.81;5039508;28;20034;-82
2021/01/21 01:38:46;;;;;;;4.13;1.00;;;11.00;99.90;;;11.42;59.80;98100.91;5039128;28;20041;-80
2021/01/21 01:41:12;;;;;;;3.00;1.20;;;11.00;99.90;;;11.50;59.37;98074.38;5023711;28;20027;-79
2021/01/21 01:43:38;;;;;;;4.32;1.33;;;11.10;99.90;;;11.56;59.07;98069.09;5051274;28;20025;-80
2021/01/21 01:46:06;;;;;;;3.25;1.20;;;11.10;99.90;;;11.43;59.79;98049.34;5050307;28;20086;-79
2021/01/21 01:48:34;;;;;;;4.07;0.77;;;11.10;99.90;;;11.40;59.55;98043.84;5022885;28;20088;-82
2021/01/21 01:51:02;;;;;;;2.67;1.38;;;11.00;99.90;;;11.35;59.57;98053.50;5040075;28;20072;-80
2021/01/21 01:53:34;;;;;;;2.03;0.90;;;11.00;99.90;;;11.45;59.21;98046.16;5062618;28;20119;-82
2021/01/21 01:56:00;;;;;;;2.88;0.90;;;11.00;99.90;;;11.59;58.48;98029.91;5060471;28;20029;-84
2021/01/21 01:58:30;;;;;;;4.60;1.10;;;11.10;99.90;;;11.53;58.56;98023.22;5055986;28;20026;-82
2021/01/21 02:00:58;;;;;;;4.95;1.00;;;11.10;99.90;;;11.52;58.86;98006.91;5051237;28;20025;-82
2021/01/21 02:03:24;;;;;;;3.95;1.20;;;11.10;99.90;;;11.48;58.84;98006.97;5041166;28;20033;-81
2021/01/21 02:05:52;;;;;;;2.40;1.02;;;11.00;99.90;;;11.46;59.19;97992.59;5061854;28;20036;-81
2021/01/21 02:08:24;;;;;;;4.68;1.33;;;11.00;99.90;;;11.50;58.62;98000.94;5037378;28;20033;-79
2021/01/21 02:10:59;;;;;;;4.85;1.10;;;11.10;99.90;;;11.47;59.13;97987.81;5061972;28;20399;-81
2021/01/21 02:14:01;;;;;;;5.13;1.38;;;11.10;99.90;;;11.50;59.01;97990.53;5059715;28;20085;-81
2021/01/21 02:17:03;;;;;;;4.78;0.90;;;11.00;99.90;;;11.55;58.14;97980.88;5061066;28;20029;-81
2021/01/21 02:20:09;;;;;;;3.45;1.10;;;11.10;99.90;;;11.59;58.54;97974.00;5052803;28;20031;-80
2021/01/21 02:23:32;;;;;;;2.08;0.75;;;11.10;99.90;;;11.56;58.08;97949.69;5038355;28;20026;-79
2021/01/21 02:26:09;;;;;;;2.55;1.40;;;11.10;99.90;;;11.54;58.48;97946.56;5036164;28;20081;-79
2021/01/21 02:29:07;;;;;;;3.38;0.90;;;11.10;99.90;;;11.65;58.00;97958.28;5034420;28;20025;-80
2021/01/21 02:32:02;;;;;;;2.47;0.95;;;11.20;99.90;;;11.61;57.92;97937.25;5033843;28;20026;-80
2021/01/21 02:35:15;;;;;;;2.60;1.10;;;11.20;99.90;;;11.56;58.43;97951.69;5033675;28;20388;-78
2021/01/21 02:37:55;;;;;;;1.70;0.90;;;11.20;99.90;;;11.63;58.21;97969.13;5035823;28;20022;-81
2021/01/21 02:40:23;;;;;;;6.05;1.30;;;11.10;99.90;;;11.52;58.32;97962.19;5023811;28;20121;-83
2021/01/21 02:42:49;;;;;;;2.05;0.80;;;11.10;99.90;;;11.62;58.19;97936.78;5034999;28;20361;-79
2021/01/21 02:45:16;;;;;;;3.75;1.38;;;11.10;99.90;;;11.60;58.46;97927.25;5038777;28;20120;-79
2021/01/21 02:47:44;;;;;;;4.95;1.00;;;11.10;99.90;;;11.49;58.82;97909.94;5050554;28;20017;-81
2021/01/21 02:50:11;;;;;;;1.58;0.77;;;11.00;99.90;;;11.46;58.67;97917.16;5040989;28;20100;-81
2021/01/21 02:52:53;;;;;;;3.63;0.98;;;11.00;99.90;;;11.52;58.78;97920.25;5015776;28;20481;-80
2021/01/21 02:55:34;;;;;;;2.35;1.10;;;11.00;99.90;;;11.63;58.29;97898.44;5016190;28;20044;-80
2021/01/21 02:58:37;;;;;;;3.95;1.05;;;11.20;99.90;;;11.72;57.59;97895.88;5033863;28;20489;-79
2021/01/21 03:01:04;;;;;;;6.38;1.50;;;11.20;99.90;;;11.86;57.66;97892.00;5018143;28;20493;-83
2021/01/21 03:03:33;;;;;;;4.45;1.00;;;11.30;99.90;;;11.80;57.91;97900.13;5034594;28;20044;-81
2021/01/21 03:06:05;;;;;;;3.90;1.02;;;11.40;99.90;;;11.89;57.89;97894.72;5032427;28;20045;-82
2021/01/21 03:08:35;;;;;;;2.92;1.05;;;11.40;99.90;;;11.90;57.52;97887.13;5036233;28;20108;-81
2021/01/21 03:11:14;;;;;;;5.22;1.15;;;11.40;99.90;;;11.90;57.26;97898.31;5025376;28;20124;-80
2021/01/21 03:13:47;;;;;;;1.30;0.80;;;11.40;99.90;;;12.00;57.34;97909.28;5014771;28;20318;-79
2021/01/21 03:16:13;;;;;;;4.63;1.40;;;11.60;99.90;;;12.08;57.10;97912.69;5040644;28;20017;-80
2021/01/21 03:18:39;;;;;;;3.58;0.95;;;11.60;99.90;;;12.10;56.79;97894.22;5052548;28;20029;-80
2021/01/21 03:21:05;;;;;;;3.97;1.00;;;11.70;99.90;;;12.03;57.02;97876.84;5048603;28;20025;-79
2021/01/21 03:23:31;;;;;;;5.88;1.58;;;11.60;99.90;;;12.01;57.03;97902.44;5029714;28;20037;-80
2021/01/21 03:25:57;;;;;;;2.22;0.95;;;11.60;99.90;;;12.10;56.68;97869.06;5047223;28;20037;-78
2021/01/21 03:28:23;;;;;;;3.58;0.77;;;11.70;99.90;;;12.19;56.66;97856.50;5036976;28;20141;-79
2021/01/21 03:30:49;;;;;;;3.67;1.05;;;11.70;99.90;;;12.21;56.76;97870.81;5035727;28;20033;-80
2021/01/21 03:33:14;;;;;;;5.38;1.33;;;11.70;99.90;;;12.11;56.99;97856.66;5036385;28;20428;-79
2021/01/21 03:35:40;;;;;;;2.45;1.00;;;11.70;99.90;;;12.12;56.93;97849.06;5042874;28;20056;-81
2021/01/21 03:38:06;;;;;;;2.65;0.82;;;11.70;99.90;;;12.15;56.57;97878.94;5030979;28;20112;-79
2021/01/21 03:40:32;;;;;;;4.05;0.82;;;11.80;99.90;;;12.10;56.79;97840.31;5056052;28;20037;-82
2021/01/21 03:42:58;;;;;;;3.88;1.23;;;11.70;99.90;;;12.20;56.57;97846.88;5056892;28;20037;-81
2021/01/21 03:45:24;;;;;;;2.92;0.77;;;11.70;99.90;;;12.25;56.98;97851.94;5050249;28;20025;-79
2021/01/21 03:47:49;;;;;;;2.55;1.00;;;11.80;99.90;;;12.29;56.53;97833.84;5056678;28;20044;-82
2021/01/21 03:50:15;;;;;;;2.63;0.70;;;11.80;99.90;;;12.32;56.82;97851.78;5037493;28;20064;-81
2021/01/21 03:52:41;;;;;;;3.42;0.80;;;11.80;99.90;;;12.37;57.69;97848.44;5018190;28;20025;-81
2021/01/21 03:55:08;;;;;;;3.08;0.93;;;11.90;99.90;;;12.10;58.65;97843.88;5019244;28;20029;-79
2021/01/21 03:57:34;;;;;;;2.30;1.05;;;11.80;99.90;;;12.22;57.98;97838.81;5037422;28;20025;-81
2021/01/21 03:59:59;;;;;;;2.30;0.88;;;11.80;99.90;;;12.30;57.25;97848.59;5037583;28;20029;-79
2021/01/21 04:02:25;;;;;;;3.75;1.08;;;11.80;99.90;;;12.31;57.73;97830.59;5038351;28;20465;-80
2021/01/21 04:04:51;;;;;;;5.10;0.82;;;11.90;99.90;;;12.36;57.53;97856.03;5038749;28;20056;-79
2021/01/21 04:07:17;;;;;;;3.53;0.90;;;12.00;99.90;;;12.31;57.37;97842.59;5037727;28;20033;-81
2021/01/21 04:09:43;;;;;;;3.80;1.20;;;11.90;99.90;;;12.28;57.75;97868.66;5018790;28;20033;-80
2021/01/21 04:12:09;;;;;;;1.20;0.57;;;11.90;99.90;;;12.30;58.01;97845.81;5020790;28;20442;-81
2021/01/21 04:14:35;;;;;;;3.30;1.33;;;11.90;99.90;;;12.32;58.02;97829.38;5036821;28;20459;-81
2021/01/21 04:17:00;;;;;;;4.40;0.80;;;11.90;99.90;;;12.29;58.36;97849.84;5037228;28;20056;-81
2021/01/21 04:19:26;;;;;;;1.20;0.73;;;11.80;99.90;;;12.32;58.07;97849.78;5019837;28;20049;-81
2021/01/21 04:21:52;;;;;;;1.38;0.50;;;11.90;99.90;;;12.52;57.22;97850.44;5036828;28;20032;-80
2021/01/21 04:24:18;;;;;;;1.30;0.80;;;12.00;99.90;;;12.49;57.93;97870.16;5037277;28;20034;-79
2021/01/21 04:26:44;;;;;;;3.70;0.80;;;12.00;99.90;;;12.50;57.43;97863.31;5019364;28;20029;-81
2021/01/21 04:29:10;;;;;;;3.85;0.90;;;12.00;99.90;;;12.52;57.79;97844.09;5039450;28;20036;-79
2021/01/21 04:31:36;;;;;;;2.25;0.75;;;12.10;99.90;;;12.53;57.19;97851.22;5041314;28;20033;-82
2021/01/21 04:34:02;;;;;;;2.63;0.80;;;12.10;99.90;;;12.64;57.06;97857.34;5036900;28;20033;-82
2021/01/21 04:36:28;;;;;;;2.33;0.80;;;12.10;99.90;;;12.67;57.07;97843.28;5037417;28;20040;-80
2021/01/21 04:38:54;;;;;;;2.65;0.60;;;12.10;99.90;;;12.57;57.13;97847.13;5027604;28;20040;-81
2021/01/21 04:41:19;;;;;;;2.83;0.70;;;12.10;99.90;;;12.62;57.38;97863.38;5033834;28;20037;-80
2021/01/21 04:43:45;;;;;;;2.10;0.68;;;12.20;99.90;;;12.63;56.99;97864.19;5047732;28;20052;-82
2021/01/21 04:46:12;;;;;;;3.28;0.90;;;12.20;99.90;;;12.74;56.80;97863.91;5018766;28;20508;-81
2021/01/21 04:48:40;;;;;;;2.75;0.95;;;12.20;99.90;;;12.73;57.28;97846.31;5036813;28;20484;-81
2021/01/21 04:51:07;;;;;;;3.55;0.80;;;12.20;99.90;;;12.72;57.07;97871.94;5036926;28;20071;-82
2021/01/21 04:53:43;;;;;;;1.33;0.50;;;12.30;99.90;;;12.75;56.99;97843.09;5019200;28;20083;-81
2021/01/21 04:56:17;;;;;;;1.05;0.60;;;12.30;99.90;;;12.72;57.69;97858.75;5037153;28;20033;-80
2021/01/21 04:58:57;;;;;;;5.45;1.00;;;12.30;99.90;;;12.71;57.71;97856.41;5030939;28;20554;-83
2021/01/21 05:01:23;;;;;;;0.98;0.55;;;12.20;99.90;;;12.64;57.73;97846.16;5058064;28;20040;-82
2021/01/21 05:03:50;;;;;;;2.08;0.60;;;12.30;99.90;;;12.77;57.57;97835.03;5053213;28;20056;-79
2021/01/21 05:06:18;;;;;;;1.85;0.60;;;12.30;99.90;;;12.67;58.00;97834.88;5038820;28;20030;-81
2021/01/21 05:08:45;;;;;;;1.50;0.50;;;12.30;99.90;;;12.72;58.03;97824.34;5023625;28;20511;-81
2021/01/21 05:11:11;;;;;;;2.97;0.68;;;12.30;99.90;;;12.76;58.17;97814.63;5055725;28;20045;-80
2021/01/21 05:13:37;;;;;;;2.03;0.73;;;12.30;99.90;;;12.72;57.83;97839.13;5055746;28;20499;-80
2021/01/21 05:16:03;;;;;;;1.90;0.60;;;12.30;99.90;;;12.83;57.77;97814.44;5034620;28;20033;-80
2021/01/21 05:18:35;;;;;;;0.98;0.50;;;12.30;99.90;;;12.76;58.23;97819.44;5055429;28;20028;-81
2021/01/21 05:21:05;;;;;;;1.60;0.60;;;12.30;99.90;;;12.78;57.99;97792.56;5037416;28;20404;-79
2021/01/21 05:23:31;;;;;;;1.17;0.50;;;12.30;99.90;;;12.80;58.08;97820.16;5055871;28;20041;-80
2021/01/21 05:25:59;;;;;;;5.18;0.50;;;12.20;99.90;;;12.86;58.08;97788.34;5038132;28;20446;-81
2021/01/21 05:28:28;;;;;;;4.32;0.60;;;12.30;99.90;;;12.74;58.43;97789.09;5055490;28;20075;-80
2021/01/21 05:31:00;;;;;;;1.08;0.47;;;12.20;99.90;;;12.77;58.72;97793.03;5058478;28;20033;-79
2021/01/21 05:33:29;;;;;;;12.25;0.95;;;12.30;99.90;;;12.85;59.16;97791.59;5039031;28;20057;-81
2021/01/21 05:35:56;;;;;;;3.10;0.82;;;12.30;99.90;;;12.79;59.62;97765.34;5057107;28;20024;-80
2021/01/21 05:38:22;;;;;;;0.55;0.40;;;12.30;99.90;;;12.83;59.52;97796.84;5061454;28;20056;-79
2021/01/21 05:40:48;;;;;;;1.35;0.50;;;12.30;99.90;;;12.73;59.74;97776.31;5049114;28;20034;-80
2021/01/21 05:43:15;;;;;;;1.25;0.60;;;12.30;99.90;;;12.79;60.30;97785.75;5056228;28;20029;-80
2021/01/21 05:45:45;;;;;;;1.33;0.47;;;12.30;99.90;;;12.68;62.13;97813.25;5059497;28;20025;-79
2021/01/21 05:48:13;;;;;;;2.10;0.43;;;12.20;99.90;;;12.42;66.29;97820.72;5061855;28;20027;-80
2021/01/21 05:50:40;;;;;;;2.65;0.65;;;12.00;99.90;;;11.91;69.44;97821.59;5045453;28;20056;-80
2021/01/21 05:53:09;;;;;;;1.30;0.70;;;11.50;99.90;;;11.69;70.38;97838.00;5028195;28;20033;-78
2021/01/21 05:55:40;;;;;;;4.00;0.70;;;11.30;99.90;;;11.77;70.77;97964.50;5032302;28;20025;-78
2021/01/21 05:58:06;;;;;;;3.28;0.40;;;11.30;99.90;;;10.38;73.26;98049.03;5044897;28;20120;-82
2021/01/21 06:00:34;;;;;;;0.90;0.40;;;10.20;99.90;;;8.99;78.57;98041.38;5044384;28;20032;-80
2021/01/21 06:03:01;;;;;;;2.80;0.65;;;9.00;99.90;;;8.49;82.83;98076.31;5062014;28;20043;-80
2021/01/21 06:05:27;;;;;;;1.38;0.35;;;8.20;99.90;;;8.32;83.93;98102.22;5062088;28;20055;-79
2021/01/21 06:07:53;;;;;;;3.95;0.60;;;7.90;99.90;;;8.03;86.80;98111.88;5042243;28;20025;-78
2021/01/21 06:10:22;;;;;;;2.08;0.57;;;7.60;99.90;;;7.99;86.41;98125.78;5061936;28;20037;-81
2021/01/21 06:12:52;;;;;;;1.83;0.57;;;7.50;99.90;;;8.01;86.83;98140.06;5044621;28;20064;-81
2021/01/21 06:15:19;;;;;;;1.58;0.50;;;7.40;99.90;;;7.90;88.00;98142.06;5044465;28;20033;-79
2021/01/21 06:17:49;;;;;;;1.00;0.52;;;7.30;99.90;;;7.73;88.53;98156.81;5043793;28;20035;-79
2021/01/21 06:20:17;;;;;;;1.63;0.40;;;7.30;99.90;;;7.70;87.94;98174.28;5044360;28;20045;-80
2021/01/21 06:22:53;;;;;;;0.73;0.30;;;7.20;99.90;;;7.50;85.04;98189.75;5059653;28;20066;-80
2021/01/21 06:25:21;;;;;;;0.63;0.25;;;7.00;99.90;;;7.16;83.34;98200.44;5041207;28;20228;-80
2021/01/21 06:27:49;;;;;;;1.50;0.25;;;6.90;99.90;;;7.07;84.43;98220.25;5058091;28;20117;-79
2021/01/21 06:30:20;;;;;;;3.20;0.30;;;6.70;99.90;;;7.04;83.70;98215.47;5039834;28;20431;-81
2021/01/21 06:32:58;;;;;;;1.67;0.20;;;6.60;99.90;;;6.94;83.46;98218.22;5042424;28;20044;-78
2021/01/21 06:35:39;;;;;;;1.08;0.20;;;6.40;99.90;;;6.89;83.04;98219.41;5058217;28;20056;-81
2021/01/21 06:38:15;;;;;;;2.30;0.20;;;6.30;99.90;;;6.84;82.16;98239.19;5055838;28;20047;-79
2021/01/21 06:40:50;;;;;;;2.45;0.40;;;6.20;99.90;;;6.62;84.35;98234.75;5037905;28;20293;-81
2021/01/21 06:43:36;;;;;;;1.85;0.40;;;6.20;99.90;;;6.58;84.55;98245.06;5038278;28;20029;-80
2021/01/21 06:46:03;;;;;;;2.53;0.35;;;6.10;99.90;;;6.47;84.66;98217.28;5037692;28;20029;-80
2021/01/21 06:48:29;;;;;;;2.17;0.57;;;6.00;99.90;;;6.61;83.09;98242.31;5055686;28;20024;-82
2021/01/21 06:50:57;;;;;;;1.73;0.52;;;6.10;99.90;;;6.71;82.62;98249.09;5053991;28;20047;-79
2021/01/21 06:53:25;;;;;;;1.23;0.60;;;6.10;99.90;;;6.70;83.20;98230.84;5064413;28;20028;-80
2021/01/21 06:55:52;;;;;;;1.95;0.50;;;6.10;99.90;;;6.63;84.07;98219.72;5057400;28;20064;-78
2021/01/21 06:58:53;;;;;;;1.90;0.50;;;6.10;99.90;;;6.62;82.00;98220.88;5037256;28;20389;-80
2021/01/21 07:01:30;;;;;;;1.83;0.60;;;6.10;99.90;;;6.72;81.98;98220.13;5054739;28;20040;-81
2021/01/21 07:04:18;;;;;;;3.15;0.52;;;6.10;99.90;;;6.65;81.58;98222.88;5055622;28;20061;-79
2021/01/21 07:06:53;;;;;;;1.15;0.40;;;6.10;99.90;;;6.67;80.13;98228.84;5039647;28;20041;-80
2021/01/21 07:09:26;;;;;;;0.35;0.30;;;6.10;99.90;;;6.75;80.78;98260.97;5016928;28;20493;-80
2021/01/21 07:12:01;;;;;;;1.80;0.40;;;6.20;99.90;;;6.76;81.00;98262.56;5035219;28;20034;-80
2021/01/21 07:14:33;;;;;;;1.55;0.40;;;6.20;99.90;;;6.64;80.71;98279.56;5018197;28;20037;-81
2021/01/21 07:17:06;;;;;;;4.30;0.80;;;6.10;99.90;;;6.56;81.55;98253.75;5039763;28;20553;-79
2021/01/21 07:19:39;;;;;;;0.75;0.40;;;6.10;99.90;;;6.59;81.05;98250.19;5033686;28;20044;-82
2021/01/21 07:22:23;;;;;;;5.40;0.70;;;6.10;99.90;;;6.54;81.60;98264.47;5036984;28;20034;-81
2021/01/21 07:25:05;;;;;;;4.22;0.82;;;6.10;99.90;;;6.60;82.58;98262.91;5038469;28;20109;-81
2021/01/21 07:27:34;;;;;;;2.63;0.70;;;6.10;99.90;;;6.53;81.74;98271.19;5034529;28;20086;-80
2021/01/21 07:30:23;;;;;;;3.80;1.08;;;6.00;99.90;;;6.55;81.48;98296.53;5056446;28;20032;-81
2021/01/21 07:33:23;;;;;;;8.43;1.40;;;6.00;99.90;;;6.70;80.72;98302.97;5037874;28;20037;-79
2021/01/21 07:35:53;;;;;;;8.45;1.00;;;6.10;99.90;;;6.61;81.03;98297.78;5055273;28;20116;-80
2021/01/21 07:38:41;;;;;;;3.20;0.90;;;6.10;99.90;;;6.56;81.51;98313.97;5037867;28;20090;-82
2021/01/21 07:41:07;;;;;;;2.65;0.80;;;6.10;99.90;;;6.57;81.40;98313.59;5027771;28;20055;-78
2021/01/21 07:43:56;;;;;;;3.53;0.80;;;6.00;99.90;;;6.59;81.83;98321.50;5037787;28;20127;-83
2021/01/21 07:46:24;;;;;;;3.30;0.98;;;6.00;99.90;;;6.57;82.04;98296.94;5053983;28;20511;-80
2021/01/21 07:49:29;;;;;;;1.73;0.85;;;6.00;99.90;;;6.50;81.92;98274.72;5053703;28;20025;-81
2021/01/21 07:52:07;;;;;;;12.55;1.55;;;6.00;99.90;;;6.44;81.90;98281.03;5037159;28;20060;-81
2021/01/21 07:54:51;;;;;;;3.83;1.35;;;6.00;99.90;;;6.60;81.29;98304.50;5036523;28;20590;-80
2021/01/21 07:57:26;;;;;;;8.13;1.35;;;6.00;99.90;;;6.58;81.82;98315.16;5055798;28;20025;-82
2021/01/21 08:00:00;;;;;;;4.68;1.20;;;6.00;99.90;;;6.58;81.47;98298.53;5036381;28;20432;-79
2021/01/21 08:02:51;;;;;;;3.63;1.30;;;6.10;99.90;;;6.60;81.46;98300.91;5036537;28;20501;-80
2021/01/21 08:05:23;;;;;;;5.97;1.25;;;6.10;99.90;;;6.64;81.32;98330.28;5053314;28;20571;-81
2021/01/21 08:07:52;;;;;;;5.57;1.00;;;6.10;99.90;;;6.74;81.17;98346.16;5055643;28;20035;-81
2021/01/21 08:10:28;;;;;;;8.85;2.20;;;6.20;99.90;;;6.68;81.30;98366.31;5040071;28;20041;-79
2021/01/21 08:13:04;;;;;;;9.35;1.65;;;6.10;99.90;;;6.69;81.76;98357.63;5040054;28;20059;-80
2021/01/21 08:15:32;;;;;;;;;;;6.10;99.90;;;6.68;81.13;98371.88;5040560;28;20087;-80
2021/01/21 08:17:59;;;;;;;6.43;1.15;;;6.20;99.90;;;6.63;81.42;98380.56;5041143;28;19948;-79
2021/01/21 08:20:29;;;;;;;8.23;1.30;;;6.10;99.90;;;6.60;81.88;98381.34;5031679;28;20028;-78
2021/01/21 08:23:10;;;;;;;6.38;1.50;;;6.10;99.90;;;6.59;81.67;98372.22;5038891;28;20036;-81
2021/01/21 08:25:49;;;;;;;3.80;0.80;;;6.10;99.90;;;6.56;81.78;98381.31;5037669;28;20107;-79
2021/01/21 08:28:20;;;;;;;5.90;1.30;;;6.10;99.90;;;6.61;81.42;98380.97;5047695;28;20029;-80
2021/01/21 08:30:49;;;;;;;4.30;1.20;;;6.00;99.90;;;6.48;82.36;98387.22;5060064;28;20032;-79
2021/01/21 08:33:31;;;;;;;4.13;1.15;;;6.00;99.90;;;6.45;81.64;98387.97;5057928;28;20020;-80
2021/01/21 08:36:06;;;;;;;13.00;2.05;;;5.90;99.90;;;6.45;81.36;98387.97;5036518;28;20029;-80
2021/01/21 08:38:42;;;;;;;8.95;1.60;;;5.90;99.90;;;6.48;81.07;98401.06;5052295;28;20032;-80
2021/01/21 08:41:13;;;;;;;10.68;1.42;;;5.90;99.90;;;6.52;81.07;98405.44;5037632;28;20033;-81
2021/01/21 08:43:42;;;;;;;9.32;1.40;;;5.90;99.90;;;6.47;81.39;98405.81;5050805;28;20021;-79
2021/01/21 08:46:22;;;;;;;6.03;1.88;;;5.90;99.90;;;6.54;80.92;98397.56;5040049;28;20029;-79
2021/01/21 08:48:50;;;;;;;5.75;1.42;;;5.90;99.90;;;6.60;80.85;98393.25;5040978;28;20025;-78
2021/01/21 08:51:42;;;;;;;5.78;1.40;;;5.90;99.90;;;6.61;80.93;98419.81;5053056;28;20144;-79
2021/01/21 08:54:12;;;;;;;3.22;1.08;;;6.00;99.90;;;6.63;80.37;98422.97;5039554;28;20029;-81
2021/01/21 08:56:39;;;;;;;3.33;1.08;;;6.10;99.90;;;6.81;79.51;98412.78;5039659;28;20026;-80
2021/01/21 08:59:26;;;;;;;4.60;1.23;;;6.20;99.90;;;6.97;78.92;98426.34;5043991;28;20052;-82
2021/01/21 09:01:54;;;;;;;6.93;1.27;;;6.40;99.90;;;7.32;77.96;98409.88;5031126;28;20032;-82
2021/01/21 09:05:03;;;;;;;6.15;1.38;;;6.70;99.90;;;7.43;77.32;98418.25;5066180;28;20036;-83
2021/01/21 09:07:29;;;;;;;5.88;1.55;;;6.90;99.90;;;7.73;75.35;98429.88;5047037;28;20116;-81
2021/01/21 09:09:55;;;;;;;4.38;1.30;;;7.10;99.90;;;7.92;75.31;98423.16;5020213;28;20060;-80
2021/01/21 09:12:23;;;;;;;3.95;1.08;;;7.30;99.90;;;7.96;74.88;98440.66;5021364;28;20120;-82
2021/01/21 09:15:14;;;;;;;4.63;1.65;;;7.40;99.90;;;8.10;74.42;98429.53;5047492;28;20034;-78
2021/01/21 09:17:41;;;;;;;6.85;1.10;;;7.50;99.90;;;8.01;74.27;98440.25;5026769;28;20123;-80
2021/01/21 09:20:24;;;;;;;8.68;1.55;;;7.60;99.90;;;8.08;73.18;98434.72;5040959;28;20052;-80
2021/01/21 09:22:52;;;;;;;3.47;1.08;;;7.60;99.90;;;8.32;71.97;98441.50;5035684;28;20457;-80
2021/01/21 09:25:27;;;;;;;6.50;1.10;;;7.60;99.90;;;8.33;73.04;98441.13;5040525;28;20120;-82
2021/01/21 09:27:56;;;;;;;6.15;1.40;;;7.70;99.90;;;8.43;72.34;98431.97;5022665;28;20034;-79
2021/01/21 09:30:24;;;;;;;7.22;1.33;;;7.80;99.90;;;8.36;71.13;98447.88;5038257;28;20033;-79
2021/01/21 09:32:50;;;;;;;8.25;0.90;;;7.80;99.90;;;8.40;71.57;98441.13;5043434;28;20032;-79
2021/01/21 09:35:23;;;;;;;4.65;1.45;;;7.90;99.90;;;8.45;70.47;98443.50;5051415;28;20033;-82
2021/01/21 09:37:57;;;;;;;7.70;1.73;;;7.90;99.90;;;8.67;70.95;98452.63;5054056;28;20049;-80
2021/01/21 09:40:30;;;;;;;4.00;1.10;;;8.10;99.90;;;8.45;70.58;98459.38;5056165;28;20022;-80
2021/01/21 09:43:01;;;;;;;4.70;1.20;;;8.00;99.90;;;8.49;71.07;98462.97;5024490;28;20030;-81
2021/01/21 09:45:29;;;;;;;8.48;2.45;;;7.90;99.90;;;8.42;71.72;98460.97;5042347;28;20067;-79
2021/01/21 09:47:57;;;;;;;8.32;1.30;;;7.90;99.90;;;8.59;70.63;98476.09;5054612;28;20029;-81
2021/01/21 09:50:24;;;;;;;11.68;1.50;;;7.90;99.90;;;8.75;69.67;98475.69;5065377;28;20039;-79
2021/01/21 09:52:55;;;;;;;7.95;1.23;;;8.10;99.90;;;8.39;70.36;98464.56;5056376;28;20029;-80
2021/01/21 09:55:27;;;;;;;5.72;1.63;;;7.80;99.90;;;8.27;70.19;98470.47;5069188;28;20027;-80
2021/01/21 09:57:53;;;;;;;5.93;1.30;;;7.70;99.90;;;8.47;70.31;98479.28;5044151;28;20058;-81
2021/01/21 10:00:20;;;;;;;7.13;1.35;;;7.80;99.90;;;8.63;69.57;98465.78;5043003;28;20100;-82
2021/01/21 10:02:46;;;;;;;3.50;1.30;;;8.00;99.90;;;8.77;68.40;98476.88;5041778;28;20040;-80
2021/01/21 10:05:13;;;;;;;3.28;1.10;;;8.10;99.90;;;8.72;68.74;98482.06;5058462;28;20028;-79
2021/01/21 10:07:39;;;;;;;5.25;1.33;;;8.20;99.90;;;8.90;69.15;98489.19;5056247;28;20024;-81
2021/01/21 10:10:06;;;;;;;5.50;1.38;;;8.30;99.90;;;9.11;67.12;98484.81;5055828;28;20020;-79
2021/01/21 10:12:33;;;;;;;5.15;1.80;;;8.40;99.90;;;9.16;66.39;98503.88;5038127;28;20120;-79
2021/01/21 10:14:59;;;;;;;5.18;1.10;;;8.60;99.90;;;9.34;66.13;98494.28;5056225;28;20052;-80
2021/01/21 10:17:25;;;;;;;5.65;1.35;;;8.70;99.90;;;9.38;65.82;98494.28;5055920;28;20520;-81
2021/01/21 10:19:51;;;;;;;4.75;0.90;;;8.80;99.90;;;9.47;65.52;98491.88;5035739;28;20036;-81
2021/01/21 10:22:17;;;;;;;8.88;1.80;;;8.90;99.90;;;9.56;64.45;98478.31;5040547;28;20108;-81
2021/01/21 10:24:44;;;;;;;7.03;1.20;;;8.90;99.90;;;9.39;64.88;98476.38;5037687;28;20080;-81
2021/01/21 10:27:11;;;;;;;8.50;1.48;;;8.90;99.90;;;9.71;63.51;98479.84;5018248;28;20079;-80
2021/01/21 10:29:37;;;;;;;8.13;1.10;;;9.00;99.90;;;9.65;63.80;98480.66;5035943;28;20021;-82
2021/01/21 10:32:05;;;;;;;7.07;1.63;;;9.00;99.90;;;9.58;64.39;98461.19;5037300;28;20045;-78
2021/01/21 10:34:32;;;;;;;11.93;1.40;;;9.00;99.90;;;9.69;62.89;98475.88;5048486;28;20025;-79
2021/01/21 10:36:57;;;;;;;7.70;1.30;;;9.10;99.90;;;9.64;63.92;98479.06;5038004;28;20024;-80
2021/01/21 10:39:23;;;;;;;11.00;1.77;;;9.10;99.90;;;10.16;62.09;98472.47;5056319;28;20035;-79
2021/01/21 10:41:49;;;;;;;10.68;1.63;;;9.30;99.90;;;10.34;62.44;98467.56;5056141;28;20115;-79